Terminal Aerodrome Forecast
Issued by NWS

Home | Current Version | Previous Version | Text Only | Print | Product List | Glossary On
Versions: 1 2 3 4 5 6 7 8 9 10 11 12
000
FTUS41 KLWX 212300 RRA
TAFMTN
TAF
KMTN 212347Z 2200/2224 09005KT 6SM +TSRA BKN008 OVC050CB
     FM220010 VRB03KT P6SM VCTS OVC050CB
     FM220300 VRB03KT P6SM BKN050
     FM222300 07007KT P6SM VCTS SCT030CB OVC060
      AMD NOT SKED 2202/2212=

USA.gov is the U.S. government's official web portal to all federal, state and local government web resources and services.